sensor_id;sensor_type;location;lat;lon;timestamp;P1;durP1;ratioP1;P2;durP2;ratioP2
69459;SDS011;57182;55.712;37.612;2022-08-21T06:26:55;62.60;;;36.05;;
69459;SDS011;57182;55.712;37.612;2022-08-21T06:29:38;61.97;;;34.30;;
69459;SDS011;57182;55.712;37.612;2022-08-21T06:32:57;49.85;;;27.30;;
69459;SDS011;57182;55.712;37.612;2022-08-21T06:36:09;61.35;;;33.92;;
69459;SDS011;57182;55.712;37.612;2022-08-21T06:39:14;83.82;;;49.70;;
69459;SDS011;57182;55.712;37.612;2022-08-21T06:42:02;76.63;;;42.83;;
69459;SDS011;57182;55.712;37.612;2022-08-21T06:44:39;61.53;;;33.88;;
69459;SDS011;57182;55.712;37.612;2022-08-21T06:47:20;66.38;;;35.05;;
69459;SDS011;57182;55.712;37.612;2022-08-21T06:49:57;56.58;;;33.95;;
69459;SDS011;57182;55.712;37.612;2022-08-21T06:55:39;60.63;;;35.00;;
69459;SDS011;57182;55.712;37.612;2022-08-21T06:58:30;60.47;;;35.63;;
69459;SDS011;57182;55.712;37.612;2022-08-21T07:01:01;64.25;;;36.20;;
69459;SDS011;57182;55.712;37.612;2022-08-21T07:03:40;66.43;;;35.92;;
69459;SDS011;57182;55.712;37.612;2022-08-21T07:06:23;52.92;;;34.35;;
69459;SDS011;57182;55.712;37.612;2022-08-21T07:08:56;63.42;;;35.00;;
69459;SDS011;57182;55.712;37.612;2022-08-21T07:11:38;61.97;;;35.25;;
69459;SDS011;57182;55.712;37.612;2022-08-21T07:14:19;51.40;;;30.52;;
69459;SDS011;57182;55.712;37.612;2022-08-21T07:16:57;54.25;;;29.48;;
69459;SDS011;57182;55.712;37.612;2022-08-21T07:19:55;52.53;;;30.65;;
69459;SDS011;57182;55.712;37.612;2022-08-21T07:22:59;49.42;;;31.38;;
69459;SDS011;57182;55.712;37.612;2022-08-21T07:25:49;48.25;;;29.02;;
69459;SDS011;57182;55.712;37.612;2022-08-21T07:29:45;49.58;;;28.73;;
69459;SDS011;57182;55.712;37.612;2022-08-21T07:32:33;52.80;;;30.17;;
69459;SDS011;57182;55.712;37.612;2022-08-21T07:35:01;51.45;;;28.98;;
69459;SDS011;57182;55.712;37.612;2022-08-21T07:38:06;49.85;;;28.58;;
69459;SDS011;57182;55.712;37.612;2022-08-21T07:41:38;55.50;;;32.17;;
69459;SDS011;57182;55.712;37.612;2022-08-21T07:47:23;59.38;;;30.17;;
69459;SDS011;57182;55.712;37.612;2022-08-21T07:50:10;49.05;;;26.45;;
69459;SDS011;57182;55.712;37.612;2022-08-21T07:52:41;58.55;;;29.55;;
69459;SDS011;57182;55.712;37.612;2022-08-21T07:55:21;109.70;;;70.38;;
69459;SDS011;57182;55.712;37.612;2022-08-21T07:57:54;73.45;;;37.00;;
69459;SDS011;57182;55.712;37.612;2022-08-21T08:00:22;65.00;;;36.80;;
69459;SDS011;57182;55.712;37.612;2022-08-21T08:02:55;68.05;;;35.67;;
69459;SDS011;57182;55.712;37.612;2022-08-21T08:05:26;71.10;;;35.50;;
69459;SDS011;57182;55.712;37.612;2022-08-21T08:07:58;54.05;;;29.83;;
69459;SDS011;57182;55.712;37.612;2022-08-21T08:10:25;61.58;;;30.08;;
69459;SDS011;57182;55.712;37.612;2022-08-21T08:12:54;53.30;;;30.02;;
69459;SDS011;57182;55.712;37.612;2022-08-21T08:15:23;56.70;;;30.42;;
69459;SDS011;57182;55.712;37.612;2022-08-21T08:17:53;53.13;;;29.30;;
69459;SDS011;57182;55.712;37.612;2022-08-21T08:20:26;51.10;;;30.38;;
69459;SDS011;57182;55.712;37.612;2022-08-21T08:22:58;81.50;;;48.55;;
69459;SDS011;57182;55.712;37.612;2022-08-21T08:25:28;59.15;;;32.00;;
69459;SDS011;57182;55.712;37.612;2022-08-21T08:28:03;49.17;;;24.58;;
69459;SDS011;57182;55.712;37.612;2022-08-21T08:30:43;45.35;;;24.00;;
69459;SDS011;57182;55.712;37.612;2022-08-21T08:35:43;39.90;;;22.38;;
69459;SDS011;57182;55.712;37.612;2022-08-21T08:38:17;39.58;;;21.55;;
69459;SDS011;57182;55.712;37.612;2022-08-21T08:43:24;39.85;;;21.83;;
69459;SDS011;57182;55.712;37.612;2022-08-21T08:45:55;41.30;;;21.63;;
69459;SDS011;57182;55.712;37.612;2022-08-21T08:51:08;35.85;;;21.42;;
69459;SDS011;57182;55.712;37.612;2022-08-21T08:54:13;34.22;;;19.67;;
69459;SDS011;57182;55.712;37.612;2022-08-21T08:56:51;35.45;;;19.80;;
69459;SDS011;57182;55.712;37.612;2022-08-21T08:59:29;30.70;;;17.08;;
69459;SDS011;57182;55.712;37.612;2022-08-21T09:02:15;36.80;;;18.88;;
69459;SDS011;57182;55.712;37.612;2022-08-21T09:04:45;31.58;;;18.48;;
69459;SDS011;57182;55.712;37.612;2022-08-21T09:10:21;39.50;;;18.75;;
69459;SDS011;57182;55.712;37.612;2022-08-21T09:31:38;31.67;;;16.73;;
69459;SDS011;57182;55.712;37.612;2022-08-21T09:39:24;25.67;;;14.45;;
69459;SDS011;57182;55.712;37.612;2022-08-21T09:42:36;24.65;;;13.07;;
69459;SDS011;57182;55.712;37.612;2022-08-21T09:46:11;32.47;;;15.10;;
69459;SDS011;57182;55.712;37.612;2022-08-21T09:53:32;36.17;;;15.82;;
69459;SDS011;57182;55.712;37.612;2022-08-21T10:03:26;36.22;;;15.57;;
69459;SDS011;57182;55.712;37.612;2022-08-21T10:05:58;31.05;;;15.27;;
69459;SDS011;57182;55.712;37.612;2022-08-21T10:08:35;28.65;;;14.27;;
69459;SDS011;57182;55.712;37.612;2022-08-21T10:11:34;26.58;;;13.80;;
69459;SDS011;57182;55.712;37.612;2022-08-21T10:23:03;28.63;;;12.23;;
69459;SDS011;57182;55.712;37.612;2022-08-21T10:29:28;16.02;;;6.75;;
69459;SDS011;57182;55.712;37.612;2022-08-21T10:35:31;18.20;;;6.78;;
69459;SDS011;57182;55.712;37.612;2022-08-21T10:47:51;19.17;;;6.70;;
69459;SDS011;57182;55.712;37.612;2022-08-21T10:50:55;13.27;;;5.60;;
69459;SDS011;57182;55.712;37.612;2022-08-21T11:00:26;17.25;;;5.35;;
69459;SDS011;57182;55.712;37.612;2022-08-21T11:03:11;14.18;;;5.18;;
69459;SDS011;57182;55.712;37.612;2022-08-21T11:09:04;13.88;;;4.35;;
69459;SDS011;57182;55.712;37.612;2022-08-21T11:17:13;15.95;;;4.53;;
69459;SDS011;57182;55.712;37.612;2022-08-21T11:28:41;17.15;;;7.68;;
69459;SDS011;57182;55.712;37.612;2022-08-21T11:33:58;17.63;;;7.93;;
69459;SDS011;57182;55.712;37.612;2022-08-21T11:36:45;27.65;;;11.35;;
69459;SDS011;57182;55.712;37.612;2022-08-21T11:39:41;22.88;;;11.90;;
69459;SDS011;57182;55.712;37.612;2022-08-21T11:42:36;24.48;;;13.20;;
69459;SDS011;57182;55.712;37.612;2022-08-21T11:45:28;29.67;;;13.52;;
69459;SDS011;57182;55.712;37.612;2022-08-21T11:50:46;34.67;;;12.95;;
69459;SDS011;57182;55.712;37.612;2022-08-21T11:53:18;25.75;;;13.15;;
69459;SDS011;57182;55.712;37.612;2022-08-21T11:56:40;25.65;;;11.70;;
69459;SDS011;57182;55.712;37.612;2022-08-21T12:02:55;25.65;;;12.35;;
69459;SDS011;57182;55.712;37.612;2022-08-21T12:05:36;24.27;;;11.93;;
69459;SDS011;57182;55.712;37.612;2022-08-21T12:08:30;28.48;;;11.85;;
69459;SDS011;57182;55.712;37.612;2022-08-21T12:16:31;25.65;;;11.20;;
69459;SDS011;57182;55.712;37.612;2022-08-21T12:29:14;18.20;;;9.90;;
69459;SDS011;57182;55.712;37.612;2022-08-21T12:31:51;20.10;;;9.45;;
69459;SDS011;57182;55.712;37.612;2022-08-21T12:34:31;24.20;;;9.90;;
69459;SDS011;57182;55.712;37.612;2022-08-21T12:37:45;22.60;;;9.32;;
69459;SDS011;57182;55.712;37.612;2022-08-21T12:40:22;15.10;;;8.00;;
69459;SDS011;57182;55.712;37.612;2022-08-21T12:43:40;21.42;;;9.68;;
69459;SDS011;57182;55.712;37.612;2022-08-21T12:46:16;20.60;;;9.43;;
69459;SDS011;57182;55.712;37.612;2022-08-21T12:48:54;18.60;;;8.50;;
69459;SDS011;57182;55.712;37.612;2022-08-21T12:54:06;23.25;;;9.25;;
69459;SDS011;57182;55.712;37.612;2022-08-21T12:56:35;16.50;;;7.40;;
69459;SDS011;57182;55.712;37.612;2022-08-21T12:59:05;19.02;;;8.10;;
69459;SDS011;57182;55.712;37.612;2022-08-21T13:01:39;16.75;;;8.35;;
69459;SDS011;57182;55.712;37.612;2022-08-21T13:04:19;20.80;;;7.85;;
69459;SDS011;57182;55.712;37.612;2022-08-21T13:07:00;27.13;;;8.65;;
69459;SDS011;57182;55.712;37.612;2022-08-21T13:09:31;31.83;;;9.35;;
69459;SDS011;57182;55.712;37.612;2022-08-21T13:11:59;18.42;;;8.55;;
69459;SDS011;57182;55.712;37.612;2022-08-21T13:14:33;20.73;;;8.25;;
69459;SDS011;57182;55.712;37.612;2022-08-21T13:17:12;24.73;;;8.60;;
69459;SDS011;57182;55.712;37.612;2022-08-21T13:19:53;22.02;;;8.48;;
69459;SDS011;57182;55.712;37.612;2022-08-21T13:22:45;13.13;;;5.60;;
69459;SDS011;57182;55.712;37.612;2022-08-21T13:25:14;18.80;;;7.30;;
69459;SDS011;57182;55.712;37.612;2022-08-21T13:27:58;22.35;;;6.60;;
69459;SDS011;57182;55.712;37.612;2022-08-21T13:30:33;17.88;;;6.60;;
69459;SDS011;57182;55.712;37.612;2022-08-21T13:33:02;25.60;;;6.40;;
69459;SDS011;57182;55.712;37.612;2022-08-21T13:36:03;14.88;;;5.35;;
69459;SDS011;57182;55.712;37.612;2022-08-21T13:38:52;18.90;;;5.82;;
69459;SDS011;57182;55.712;37.612;2022-08-21T13:41:22;26.38;;;5.70;;
69459;SDS011;57182;55.712;37.612;2022-08-21T13:44:31;25.58;;;5.43;;
69459;SDS011;57182;55.712;37.612;2022-08-21T13:47:09;15.75;;;5.60;;
69459;SDS011;57182;55.712;37.612;2022-08-21T13:52:16;17.85;;;6.07;;
69459;SDS011;57182;55.712;37.612;2022-08-21T13:54:53;23.20;;;5.50;;
69459;SDS011;57182;55.712;37.612;2022-08-21T14:06:14;13.75;;;6.93;;
69459;SDS011;57182;55.712;37.612;2022-08-21T14:10:13;21.98;;;7.00;;
69459;SDS011;57182;55.712;37.612;2022-08-21T14:23:02;12.95;;;3.35;;
69459;SDS011;57182;55.712;37.612;2022-08-21T14:41:30;8.63;;;1.90;;
69459;SDS011;57182;55.712;37.612;2022-08-21T14:44:24;10.98;;;2.13;;
69459;SDS011;57182;55.712;37.612;2022-08-21T14:48:00;12.43;;;2.17;;
69459;SDS011;57182;55.712;37.612;2022-08-21T14:50:35;9.05;;;1.95;;
69459;SDS011;57182;55.712;37.612;2022-08-21T14:53:06;9.55;;;2.17;;
69459;SDS011;57182;55.712;37.612;2022-08-21T15:00:08;9.70;;;1.58;;
69459;SDS011;57182;55.712;37.612;2022-08-21T15:03:25;7.40;;;2.05;;
69459;SDS011;57182;55.712;37.612;2022-08-21T15:06:16;7.35;;;1.50;;
69459;SDS011;57182;55.712;37.612;2022-08-21T15:08:48;8.55;;;1.95;;
69459;SDS011;57182;55.712;37.612;2022-08-21T15:20:20;14.90;;;1.75;;
69459;SDS011;57182;55.712;37.612;2022-08-21T15:22:57;7.22;;;1.88;;
69459;SDS011;57182;55.712;37.612;2022-08-21T15:25:40;18.75;;;1.80;;
69459;SDS011;57182;55.712;37.612;2022-08-21T15:28:19;9.68;;;1.70;;
69459;SDS011;57182;55.712;37.612;2022-08-21T15:31:16;8.27;;;1.92;;
69459;SDS011;57182;55.712;37.612;2022-08-21T15:33:54;19.73;;;2.10;;
69459;SDS011;57182;55.712;37.612;2022-08-21T15:36:25;9.55;;;1.95;;
69459;SDS011;57182;55.712;37.612;2022-08-21T15:39:00;8.77;;;1.80;;
69459;SDS011;57182;55.712;37.612;2022-08-21T15:41:31;13.45;;;2.15;;
69459;SDS011;57182;55.712;37.612;2022-08-21T15:47:34;6.72;;;1.90;;
69459;SDS011;57182;55.712;37.612;2022-08-21T15:50:19;9.05;;;1.92;;
69459;SDS011;57182;55.712;37.612;2022-08-21T15:53:03;14.77;;;2.40;;
69459;SDS011;57182;55.712;37.612;2022-08-21T15:59:19;7.20;;;1.88;;
69459;SDS011;57182;55.712;37.612;2022-08-21T16:02:55;6.40;;;1.65;;
69459;SDS011;57182;55.712;37.612;2022-08-21T16:07:21;5.93;;;1.70;;
69459;SDS011;57182;55.712;37.612;2022-08-21T16:10:22;16.33;;;2.20;;
69459;SDS011;57182;55.712;37.612;2022-08-21T16:17:50;10.57;;;1.42;;
69459;SDS011;57182;55.712;37.612;2022-08-21T16:28:29;8.88;;;1.70;;
69459;SDS011;57182;55.712;37.612;2022-08-21T16:31:20;16.50;;;2.13;;
69459;SDS011;57182;55.712;37.612;2022-08-21T16:34:04;10.80;;;2.35;;
69459;SDS011;57182;55.712;37.612;2022-08-21T16:37:53;11.10;;;2.08;;
69459;SDS011;57182;55.712;37.612;2022-08-21T16:40:46;9.63;;;1.70;;
69459;SDS011;57182;55.712;37.612;2022-08-21T16:47:57;11.27;;;1.95;;
69459;SDS011;57182;55.712;37.612;2022-08-21T16:50:53;7.00;;;2.30;;
69459;SDS011;57182;55.712;37.612;2022-08-21T16:53:27;10.75;;;2.55;;
69459;SDS011;57182;55.712;37.612;2022-08-21T16:56:08;7.40;;;2.20;;
69459;SDS011;57182;55.712;37.612;2022-08-21T16:58:49;12.90;;;2.85;;
69459;SDS011;57182;55.712;37.612;2022-08-21T17:01:28;17.20;;;4.93;;
69459;SDS011;57182;55.712;37.612;2022-08-21T17:03:58;14.18;;;4.80;;
69459;SDS011;57182;55.712;37.612;2022-08-21T17:06:32;18.38;;;7.85;;
69459;SDS011;57182;55.712;37.612;2022-08-21T17:09:06;25.42;;;9.88;;
69459;SDS011;57182;55.712;37.612;2022-08-21T17:11:42;25.98;;;11.23;;
69459;SDS011;57182;55.712;37.612;2022-08-21T17:14:21;33.65;;;14.60;;
69459;SDS011;57182;55.712;37.612;2022-08-21T17:26:41;33.63;;;18.77;;
69459;SDS011;57182;55.712;37.612;2022-08-21T17:33:22;27.90;;;16.30;;
69459;SDS011;57182;55.712;37.612;2022-08-21T17:37:13;29.75;;;15.15;;
69459;SDS011;57182;55.712;37.612;2022-08-21T17:40:33;29.42;;;15.88;;
69459;SDS011;57182;55.712;37.612;2022-08-21T17:43:14;35.00;;;17.88;;
69459;SDS011;57182;55.712;37.612;2022-08-21T17:46:06;28.88;;;16.13;;
69459;SDS011;57182;55.712;37.612;2022-08-21T18:53:49;18.25;;;7.97;;
69459;SDS011;57182;55.712;37.612;2022-08-21T19:40:57;13.27;;;6.88;;
69459;SDS011;57182;55.712;37.612;2022-08-21T19:57:58;14.90;;;6.50;;
69459;SDS011;57182;55.712;37.612;2022-08-21T20:05:41;13.73;;;6.43;;
69459;SDS011;57182;55.712;37.612;2022-08-21T21:03:11;12.70;;;5.55;;
69459;SDS011;57182;55.712;37.612;2022-08-21T21:11:23;17.00;;;5.75;;
69459;SDS011;57182;55.712;37.612;2022-08-21T21:14:10;14.35;;;5.00;;
69459;SDS011;57182;55.712;37.612;2022-08-21T21:16:57;16.38;;;6.07;;
69459;SDS011;57182;55.712;37.612;2022-08-21T21:19:42;13.45;;;5.53;;
69459;SDS011;57182;55.712;37.612;2022-08-21T21:23:24;15.30;;;5.38;;
69459;SDS011;57182;55.712;37.612;2022-08-21T21:26:37;13.80;;;5.20;;
69459;SDS011;57182;55.712;37.612;2022-08-21T21:29:33;15.93;;;5.35;;
69459;SDS011;57182;55.712;37.612;2022-08-21T21:32:25;13.52;;;5.10;;
